Flight Track Log - Related Links

Times and Time Zones

All times are in EDT time to prevent confusion due to time zone crossing. See the AUB1638 flight status page for this flight to view local times or setup timezone preferences in your user account.

Time Position Orientation Groundspeed Altitude Reporting Facility
EDT Latitude Longitude Course Direction KTS MPH feet Rate Location/Type
Thu 08:59:00 AM 48.5401 11.9938 36° Northeast  Level Estimated
Thu 09:00:00 AM 48.6022 12.0633 37° Northeast  Level Estimated
Thu 09:01:00 AM 48.6642 12.1331 37° Northeast  Level Estimated
Thu 09:02:00 AM 48.7261 12.2030 37° Northeast  Level Estimated
Thu 09:03:00 AM 48.7881 12.2731 37° Northeast  Level Estimated
Thu 09:04:00 AM 48.8499 12.3433 37° Northeast  Level Estimated
Thu 09:05:00 AM 48.9118 12.4138 37° Northeast  Level Estimated
Thu 09:06:00 AM 48.9735 12.4844 37° Northeast  Level Estimated
Thu 09:07:00 AM 49.0353 12.5551 37° Northeast  Level Estimated
Thu 09:08:00 AM 49.0970 12.6261 37° Northeast  Level Estimated
Thu 09:09:00 AM 49.1586 12.6972 37° Northeast  Level Estimated
Thu 09:10:00 AM 49.2202 12.7685 37° Northeast  Level Estimated
Thu 09:11:00 AM 49.2818 12.8400 37° Northeast  Level Estimated
Thu 09:12:00 AM 49.3433 12.9117 37° Northeast  Level Estimated
Thu 09:13:00 AM 49.4048 12.9836 37° Northeast  Level Estimated
Thu 09:14:00 AM 49.4662 13.0556 37° Northeast  Level Estimated
Thu 09:15:00 AM 49.5276 13.1278 37° Northeast  Level Estimated
Thu 09:16:00 AM 49.5890 13.2002 37° Northeast  Level Estimated
Thu 09:17:00 AM 49.6503 13.2727 37° Northeast  Level Estimated
Thu 09:18:00 AM 49.7115 13.3455 38° Northeast  Level Estimated
Thu 09:19:00 AM 49.7727 13.4184 38° Northeast  Level Estimated
Thu 09:20:00 AM 49.8339 13.4916 38° Northeast  Level Estimated
Thu 09:21:00 AM 49.8950 13.5649 38° Northeast  Level Estimated
Thu 09:22:00 AM 49.9561 13.6384 38° Northeast  Level Estimated
Thu 09:23:00 AM 50.0171 13.7120 38° Northeast  Level Estimated
Thu 09:24:00 AM 50.0780 13.7859 38° Northeast  Level Estimated
Thu 09:25:00 AM 50.1390 13.8600 38° Northeast  Level Estimated
Thu 09:26:00 AM 50.1999 13.9342 38° Northeast  Level Estimated
Thu 09:27:00 AM 50.2607 14.0086 38° Northeast  Level Estimated
Thu 09:28:00 AM 50.3215 14.0833 38° Northeast  Level Estimated
Thu 09:29:00 AM 50.3822 14.1581 38° Northeast  Level Estimated
Thu 09:30:00 AM 50.4429 14.2331 38° Northeast  Level Estimated
Thu 09:31:00 AM 50.5036 14.3083 38° Northeast  Level Estimated
Thu 09:32:00 AM 50.5641 14.3836 38° Northeast  Level Estimated
Thu 09:33:00 AM 50.6247 14.4592 38° Northeast  Level Estimated
Thu 09:34:00 AM 50.6852 14.5350 38° Northeast  Level Estimated
Thu 09:35:00 AM 50.7456 14.6110 38° Northeast  Level Estimated
Thu 09:36:00 AM 50.8060 14.6872 39° Northeast  Level Estimated
Thu 09:37:00 AM 50.8664 14.7635 39° Northeast  Level Estimated
Thu 09:38:00 AM 50.9267 14.8401 39° Northeast  Level Estimated
Thu 09:39:00 AM 50.9869 14.9169 39° Northeast  Level Estimated
Thu 09:40:00 AM 51.0471 14.9938 39° Northeast  Level Estimated
Thu 09:41:00 AM 51.1073 15.0710 39° Northeast  Level Estimated
Thu 09:42:00 AM 51.1674 15.1484 39° Northeast  Level Estimated
Thu 09:43:00 AM 51.2274 15.2259 39° Northeast  Level Estimated
Thu 09:44:00 AM 51.2874 15.3037 39° Northeast  Level Estimated
Thu 09:45:00 AM 51.3473 15.3817 39° Northeast  Level Estimated
Thu 09:46:00 AM 51.4072 15.4599 39° Northeast  Level Estimated
Thu 09:47:00 AM 51.4670 15.5382 39° Northeast  Level Estimated
Thu 09:48:00 AM 51.5268 15.6168 39° Northeast  Level Estimated
Thu 09:49:00 AM 51.5866 15.6956 39° Northeast  Level Estimated
Thu 09:50:00 AM 51.6462 15.7746 39° Northeast  Level Estimated
Thu 09:51:00 AM 51.7059 15.8538 39° Northeast  Level Estimated
Thu 09:52:00 AM 51.7654 15.9333 40° Northeast  Level Estimated
Thu 09:53:00 AM 51.8250 16.0129 40° Northeast  Level Estimated
Thu 09:54:00 AM 51.8844 16.0927 40° Northeast  Level Estimated
Thu 09:55:00 AM 51.9438 16.1728 40° Northeast  Level Estimated
Thu 09:56:00 AM 52.0032 16.2530 40° Northeast  Level Estimated
Thu 09:57:00 AM 52.0625 16.3335 40° Northeast  Level Estimated
Thu 09:58:00 AM 52.1217 16.4142 40° Northeast  Level Estimated
Thu 09:59:00 AM 52.1809 16.4951 40° Northeast  Level Estimated
Thu 10:00:00 AM 52.2401 16.5762 40° Northeast  Level Estimated
Thu 10:01:00 AM 52.2991 16.6576 40° Northeast  Level Estimated
Thu 10:02:00 AM 52.3582 16.7391 40° Northeast  Level Estimated
Thu 10:03:00 AM 52.4171 16.8209 40° Northeast  Level Estimated
Thu 10:04:00 AM 52.4210 16.8263 40° Northeast  Level Estimated
Thu 10:05:00 AM 52.4210 16.8263 72° East  Level Estimated
Thu 10:06:00 AM 52.4210 16.8263 72° East  Level Estimated
Thu 10:07:00 AM 52.4210 16.8263 72° East  Level Estimated
Thu 10:08:00 AM 52.4210 16.8263 72° East  Level Estimated
Thu 10:09:00 AM 52.4210 16.8263 72° East  Level Estimated
Thu 10:10:00 AM 52.4210 16.8263 72° East  Level Estimated
Thu 10:11:00 AM 52.4210 16.8263 72° East  Level Estimated
Thu 10:12:00 AM 52.4210 16.8263 72° East  Level Estimated
Thu 10:13:00 AM 52.4210 16.8263 72° East  Level Estimated
Thu 10:14:00 AM 52.4210 16.8263 72° East  Level Estimated
Thu 10:15:00 AM 52.4210 16.8263 72° East  Level Estimated
Thu 10:16:00 AM 52.4210 16.8263 72° East  Level Estimated
Thu 10:17:00 AM 52.4210 16.8263 72° East  Level Estimated
Thu 10:18:00 AM 52.4210 16.8263 72° East  Level Estimated
Thu 10:19:00 AM 52.4210 16.8263 72° East  Level Estimated

Login

Don't have an account? Register now (free) for customized features, flight alerts, and more!